OCN274 EDDF-LGKR
Flight info
| Callsign | OCN274 |
|---|---|
| Flight time | N/A |
| Altitude | 37000 |
| Route | CINDY2D CINDY Z74 LAMPU DCT NOMBO Y161 MAH DCT VAVOR DCT RADIZ DCT NERRA DCT KOFER DCT RODON DCT LIMJA N732 PITAS |
| Aircraft | A320/M-SDE3FGHIRWY/LB1 |
Departure
| Time | N/A |
|---|---|
| Airport | Frankfurt Main Airport (EDDF) |
Arrival
| Time | 2026-04-29 15:33 |
|---|---|
| Airport | Corfu Ioannis Kapodistrias International Airport (LGKR) |
| Time | Latitude | Longitude | Altitude | Speed | Heading |
|---|---|---|---|---|---|
| 2026-04-29 15:10 | 40.79085 | 19.42351 | 37057 ft | 471 kts | 163° |
| 2026-04-29 15:11 | 40.72935 | 19.45302 | 37056 ft | 471 kts | 163° |
| 2026-04-29 15:11 | 40.67610 | 19.47848 | 37054 ft | 470 kts | 163° |
| 2026-04-29 15:12 | 40.61454 | 19.50779 | 37060 ft | 470 kts | 163° |
| 2026-04-29 15:12 | 40.55315 | 19.53706 | 36452 ft | 468 kts | 163° |
| 2026-04-29 15:12 | 40.52290 | 19.55150 | 35737 ft | 469 kts | 163° |
| 2026-04-29 15:13 | 40.49221 | 19.56609 | 35010 ft | 470 kts | 163° |
| 2026-04-29 15:13 | 40.46143 | 19.58070 | 34286 ft | 471 kts | 163° |
| 2026-04-29 15:13 | 40.43059 | 19.59529 | 33504 ft | 471 kts | 163° |
| 2026-04-29 15:13 | 40.39972 | 19.60989 | 32666 ft | 473 kts | 163° |
| 2026-04-29 15:14 | 40.36873 | 19.62452 | 31804 ft | 474 kts | 163° |
| 2026-04-29 15:14 | 40.33764 | 19.63918 | 30948 ft | 475 kts | 163° |
| 2026-04-29 15:14 | 40.30645 | 19.65360 | 30057 ft | 476 kts | 166° |
| 2026-04-29 15:14 | 40.27416 | 19.66135 | 29034 ft | 471 kts | 179° |
| 2026-04-29 15:15 | 40.24132 | 19.66432 | 27896 ft | 473 kts | 179° |
| 2026-04-29 15:15 | 40.20835 | 19.66714 | 26756 ft | 476 kts | 179° |
| 2026-04-29 15:15 | 40.17524 | 19.66988 | 25587 ft | 479 kts | 179° |
| 2026-04-29 15:15 | 40.14188 | 19.67260 | 24444 ft | 482 kts | 179° |
| 2026-04-29 15:16 | 40.10840 | 19.67533 | 23441 ft | 481 kts | 179° |
| 2026-04-29 15:16 | 40.07520 | 19.67807 | 22574 ft | 475 kts | 179° |
| 2026-04-29 15:16 | 40.04247 | 19.68078 | 21753 ft | 469 kts | 179° |
| 2026-04-29 15:16 | 40.01013 | 19.68343 | 20960 ft | 463 kts | 179° |
| 2026-04-29 15:17 | 39.98894 | 19.68516 | 20463 ft | 459 kts | 179° |
| 2026-04-29 15:17 | 39.98711 | 19.68531 | 20420 ft | 459 kts | 179° |
| 2026-04-29 15:17 | 39.96422 | 19.68721 | 19858 ft | 456 kts | 179° |
| 2026-04-29 15:17 | 39.93186 | 19.68993 | 19133 ft | 450 kts | 179° |
| 2026-04-29 15:18 | 39.90075 | 19.69248 | 18442 ft | 445 kts | 179° |
| 2026-04-29 15:18 | 39.87000 | 19.69495 | 17680 ft | 441 kts | 179° |
| 2026-04-29 15:18 | 39.83958 | 19.69740 | 16941 ft | 436 kts | 178° |
| 2026-04-29 15:18 | 39.80947 | 19.69986 | 16219 ft | 431 kts | 178° |
| 2026-04-29 15:19 | 39.77965 | 19.70233 | 15517 ft | 427 kts | 178° |
| 2026-04-29 15:19 | 39.75013 | 19.70479 | 14840 ft | 423 kts | 178° |
| 2026-04-29 15:19 | 39.72088 | 19.70722 | 14170 ft | 420 kts | 178° |
| 2026-04-29 15:19 | 39.69188 | 19.70961 | 13474 ft | 416 kts | 178° |
| 2026-04-29 15:20 | 39.66317 | 19.71194 | 12757 ft | 411 kts | 178° |
| 2026-04-29 15:20 | 39.63482 | 19.71423 | 12054 ft | 406 kts | 178° |
| 2026-04-29 15:20 | 39.60673 | 19.71650 | 11360 ft | 401 kts | 178° |
| 2026-04-29 15:20 | 39.57900 | 19.71873 | 10681 ft | 397 kts | 178° |
| 2026-04-29 15:21 | 39.55164 | 19.72091 | 10197 ft | 387 kts | 178° |
| 2026-04-29 15:21 | 39.52565 | 19.72301 | 10043 ft | 359 kts | 178° |
| 2026-04-29 15:21 | 39.50176 | 19.72499 | 9870 ft | 329 kts | 178° |
| 2026-04-29 15:21 | 39.48005 | 19.72678 | 9743 ft | 304 kts | 178° |
| 2026-04-29 15:22 | 39.45947 | 19.72844 | 9332 ft | 291 kts | 178° |
| 2026-04-29 15:22 | 39.43932 | 19.73003 | 8959 ft | 289 kts | 178° |
| 2026-04-29 15:22 | 39.41940 | 19.73225 | 8599 ft | 287 kts | 172° |
| 2026-04-29 15:22 | 39.40016 | 19.73891 | 8226 ft | 287 kts | 160° |
| 2026-04-29 15:23 | 39.38236 | 19.75044 | 7835 ft | 287 kts | 148° |
| 2026-04-29 15:23 | 39.36656 | 19.76608 | 7446 ft | 286 kts | 141° |
| 2026-04-29 15:23 | 39.35136 | 19.78248 | 7074 ft | 284 kts | 141° |
| 2026-04-29 15:23 | 39.33628 | 19.79879 | 6806 ft | 278 kts | 141° |
| 2026-04-29 15:24 | 39.32190 | 19.81471 | 6679 ft | 267 kts | 136° |
| 2026-04-29 15:24 | 39.30985 | 19.83220 | 6563 ft | 256 kts | 129° |
| 2026-04-29 15:24 | 39.30048 | 19.85121 | 6437 ft | 247 kts | 114° |
| 2026-04-29 15:24 | 39.29541 | 19.87199 | 6314 ft | 239 kts | 97° |
| 2026-04-29 15:25 | 39.29481 | 19.89283 | 6173 ft | 225 kts | 88° |
| 2026-04-29 15:25 | 39.29549 | 19.91224 | 6044 ft | 208 kts | 86° |
| 2026-04-29 15:25 | 39.29629 | 19.93092 | 5507 ft | 210 kts | 86° |
| 2026-04-29 15:25 | 39.29934 | 19.94930 | 4956 ft | 211 kts | 62° |
| 2026-04-29 15:26 | 39.30726 | 19.96191 | 4561 ft | 206 kts | 35° |
| 2026-04-29 15:26 | 39.32007 | 19.96897 | 4159 ft | 198 kts | 5° |
| 2026-04-29 15:26 | 39.33330 | 19.96823 | 3991 ft | 182 kts | 351° |
| 2026-04-29 15:26 | 39.34563 | 19.96662 | 4007 ft | 180 kts | 352° |
| 2026-04-29 15:27 | 39.35813 | 19.96504 | 4024 ft | 180 kts | 352° |
| 2026-04-29 15:27 | 39.37070 | 19.96345 | 3964 ft | 182 kts | 352° |
| 2026-04-29 15:27 | 39.38304 | 19.96192 | 3835 ft | 174 kts | 352° |
| 2026-04-29 15:27 | 39.39495 | 19.96043 | 3719 ft | 171 kts | 352° |
| 2026-04-29 15:28 | 39.40676 | 19.95893 | 3548 ft | 170 kts | 352° |
| 2026-04-29 15:28 | 39.41454 | 19.95794 | 3430 ft | 169 kts | 352° |
| 2026-04-29 15:28 | 39.43022 | 19.95591 | 3159 ft | 170 kts | 352° |
| 2026-04-29 15:28 | 39.44200 | 19.95439 | 2942 ft | 170 kts | 352° |
| 2026-04-29 15:29 | 39.45386 | 19.95264 | 2680 ft | 174 kts | 349° |
| 2026-04-29 15:29 | 39.47736 | 19.94690 | 2154 ft | 165 kts | 345° |
| 2026-04-29 15:30 | 39.49809 | 19.94004 | 1862 ft | 144 kts | 342° |
| 2026-04-29 15:30 | 39.50776 | 19.93707 | 1634 ft | 142 kts | 346° |
| 2026-04-29 15:30 | 39.51739 | 19.93470 | 1454 ft | 141 kts | 346° |
| 2026-04-29 15:30 | 39.52692 | 19.93217 | 1212 ft | 139 kts | 344° |
| 2026-04-29 15:31 | 39.53644 | 19.92959 | 1017 ft | 141 kts | 345° |
| 2026-04-29 15:31 | 39.54592 | 19.92687 | 836 ft | 139 kts | 345° |
| 2026-04-29 15:31 | 39.55543 | 19.92425 | 693 ft | 140 kts | 345° |
| 2026-04-29 15:31 | 39.56499 | 19.92187 | 584 ft | 140 kts | 346° |
| 2026-04-29 15:32 | 39.57456 | 19.91922 | 432 ft | 142 kts | 346° |
| 2026-04-29 15:32 | 39.58420 | 19.91689 | 244 ft | 139 kts | 346° |
| 2026-04-29 15:32 | 39.59360 | 19.91439 | 34 ft | 137 kts | 345° |
| 2026-04-29 15:32 | 39.60196 | 19.91213 | 22 ft | 101 kts | 349° |
| 2026-04-29 15:33 | 39.60737 | 19.91073 | 19 ft | 56 kts | 349° |
| 2026-04-29 15:33 | 39.61001 | 19.91018 | 19 ft | 26 kts | 20° |
| 2026-04-29 15:33 | 39.61048 | 19.91076 | 19 ft | 0 kts | 53° |
| 2026-04-29 15:34 | 39.61056 | 19.91090 | 19 ft | 10 kts | 53° |
| 2026-04-29 15:34 | 39.60988 | 19.91138 | 20 ft | 22 kts | 166° |
| 2026-04-29 15:34 | 39.60859 | 19.91175 | 18 ft | 14 kts | 168° |
| 2026-04-29 15:34 | 39.60767 | 19.91199 | 18 ft | 12 kts | 166° |
| 2026-04-29 15:35 | 39.60750 | 19.91229 | 18 ft | 0 kts | 106° |
| 2026-04-29 15:35 | 39.60753 | 19.91284 | 18 ft | 9 kts | 79° |
| 2026-04-29 15:35 | 39.60761 | 19.91332 | 18 ft | 3 kts | 74° |
| 2026-04-29 15:35 | 39.60762 | 19.91342 | 18 ft | 0 kts | 79° |